sensor_id;sensor_type;location;lat;lon;timestamp;temperature;humidity
33988;DHT22;37428;53.580;-1.666;2023-12-20T00:01:11;6.20;95.90
33988;DHT22;37428;53.580;-1.666;2023-12-20T00:04:14;6.20;96.00
33988;DHT22;37428;53.580;-1.666;2023-12-20T00:07:23;6.20;95.90
33988;DHT22;37428;53.580;-1.666;2023-12-20T00:10:26;6.30;95.90
33988;DHT22;37428;53.580;-1.666;2023-12-20T00:13:28;6.30;95.60
33988;DHT22;37428;53.580;-1.666;2023-12-20T00:16:36;6.30;95.40
33988;DHT22;37428;53.580;-1.666;2023-12-20T00:19:38;6.30;95.00
33988;DHT22;37428;53.580;-1.666;2023-12-20T00:22:42;6.40;94.50
33988;DHT22;37428;53.580;-1.666;2023-12-20T00:25:44;6.30;94.50
33988;DHT22;37428;53.580;-1.666;2023-12-20T00:28:46;6.30;94.30
33988;DHT22;37428;53.580;-1.666;2023-12-20T00:31:48;6.30;93.90
33988;DHT22;37428;53.580;-1.666;2023-12-20T00:34:51;6.30;93.80
33988;DHT22;37428;53.580;-1.666;2023-12-20T00:37:54;6.30;93.20
33988;DHT22;37428;53.580;-1.666;2023-12-20T00:40:56;6.30;93.60
33988;DHT22;37428;53.580;-1.666;2023-12-20T00:44:16;6.40;93.70
33988;DHT22;37428;53.580;-1.666;2023-12-20T00:47:18;6.40;94.10
33988;DHT22;37428;53.580;-1.666;2023-12-20T00:50:21;6.40;93.90
33988;DHT22;37428;53.580;-1.666;2023-12-20T00:53:24;6.40;93.50
33988;DHT22;37428;53.580;-1.666;2023-12-20T00:56:27;6.40;93.20
33988;DHT22;37428;53.580;-1.666;2023-12-20T00:59:31;6.50;93.90
33988;DHT22;37428;53.580;-1.666;2023-12-20T01:02:33;6.50;94.60
33988;DHT22;37428;53.580;-1.666;2023-12-20T01:05:35;6.40;94.50
33988;DHT22;37428;53.580;-1.666;2023-12-20T01:08:39;6.40;95.10
33988;DHT22;37428;53.580;-1.666;2023-12-20T01:11:41;6.40;96.30
33988;DHT22;37428;53.580;-1.666;2023-12-20T01:14:43;6.40;96.70
33988;DHT22;37428;53.580;-1.666;2023-12-20T01:17:46;6.30;97.00
33988;DHT22;37428;53.580;-1.666;2023-12-20T01:20:51;6.30;97.10
33988;DHT22;37428;53.580;-1.666;2023-12-20T01:23:54;6.40;96.90
33988;DHT22;37428;53.580;-1.666;2023-12-20T01:26:59;6.40;97.10
33988;DHT22;37428;53.580;-1.666;2023-12-20T01:30:03;6.40;97.30
33988;DHT22;37428;53.580;-1.666;2023-12-20T01:33:05;6.40;97.20
33988;DHT22;37428;53.580;-1.666;2023-12-20T01:36:07;6.40;97.10
33988;DHT22;37428;53.580;-1.666;2023-12-20T01:39:14;6.40;97.40
33988;DHT22;37428;53.580;-1.666;2023-12-20T01:42:16;6.40;97.30
33988;DHT22;37428;53.580;-1.666;2023-12-20T01:45:20;6.40;97.10
33988;DHT22;37428;53.580;-1.666;2023-12-20T01:48:23;6.40;96.90
33988;DHT22;37428;53.580;-1.666;2023-12-20T01:51:29;6.50;96.70
33988;DHT22;37428;53.580;-1.666;2023-12-20T01:54:42;6.50;97.00
33988;DHT22;37428;53.580;-1.666;2023-12-20T01:57:46;6.50;96.70
33988;DHT22;37428;53.580;-1.666;2023-12-20T02:00:49;6.50;97.00
33988;DHT22;37428;53.580;-1.666;2023-12-20T02:03:52;6.50;97.00
33988;DHT22;37428;53.580;-1.666;2023-12-20T02:06:54;6.50;97.10
33988;DHT22;37428;53.580;-1.666;2023-12-20T02:09:59;6.50;96.90
33988;DHT22;37428;53.580;-1.666;2023-12-20T02:13:01;6.50;97.30
33988;DHT22;37428;53.580;-1.666;2023-12-20T02:16:04;6.60;97.30
33988;DHT22;37428;53.580;-1.666;2023-12-20T02:19:13;6.50;97.10
33988;DHT22;37428;53.580;-1.666;2023-12-20T02:22:17;6.50;96.70
33988;DHT22;37428;53.580;-1.666;2023-12-20T02:25:20;6.60;96.60
33988;DHT22;37428;53.580;-1.666;2023-12-20T02:28:22;6.70;96.80
33988;DHT22;37428;53.580;-1.666;2023-12-20T02:31:24;6.70;96.90
33988;DHT22;37428;53.580;-1.666;2023-12-20T02:34:26;6.80;97.40
33988;DHT22;37428;53.580;-1.666;2023-12-20T02:37:30;6.80;96.70
33988;DHT22;37428;53.580;-1.666;2023-12-20T02:40:32;6.80;96.30
33988;DHT22;37428;53.580;-1.666;2023-12-20T02:43:35;6.90;96.30
33988;DHT22;37428;53.580;-1.666;2023-12-20T02:46:37;6.90;96.70
33988;DHT22;37428;53.580;-1.666;2023-12-20T02:49:40;6.90;96.80
33988;DHT22;37428;53.580;-1.666;2023-12-20T02:52:45;6.90;96.50
33988;DHT22;37428;53.580;-1.666;2023-12-20T02:55:47;6.90;96.80
33988;DHT22;37428;53.580;-1.666;2023-12-20T02:58:50;6.90;97.20
33988;DHT22;37428;53.580;-1.666;2023-12-20T03:01:52;6.90;97.00
33988;DHT22;37428;53.580;-1.666;2023-12-20T03:04:54;6.90;97.10
33988;DHT22;37428;53.580;-1.666;2023-12-20T03:07:57;7.00;97.70
33988;DHT22;37428;53.580;-1.666;2023-12-20T03:11:00;6.90;97.60
33988;DHT22;37428;53.580;-1.666;2023-12-20T03:14:02;6.90;97.80
33988;DHT22;37428;53.580;-1.666;2023-12-20T03:17:04;7.00;98.10
33988;DHT22;37428;53.580;-1.666;2023-12-20T03:20:08;7.00;97.90
33988;DHT22;37428;53.580;-1.666;2023-12-20T03:23:11;7.00;97.80
33988;DHT22;37428;53.580;-1.666;2023-12-20T03:26:14;7.00;97.10
33988;DHT22;37428;53.580;-1.666;2023-12-20T03:29:16;7.00;97.20
33988;DHT22;37428;53.580;-1.666;2023-12-20T03:32:18;7.00;97.30
33988;DHT22;37428;53.580;-1.666;2023-12-20T03:35:21;7.10;97.40
33988;DHT22;37428;53.580;-1.666;2023-12-20T03:38:24;7.20;97.60
33988;DHT22;37428;53.580;-1.666;2023-12-20T03:41:26;7.10;97.30
33988;DHT22;37428;53.580;-1.666;2023-12-20T03:44:29;7.10;97.20
33988;DHT22;37428;53.580;-1.666;2023-12-20T03:47:31;7.10;97.50
33988;DHT22;37428;53.580;-1.666;2023-12-20T03:50:35;7.10;98.00
33988;DHT22;37428;53.580;-1.666;2023-12-20T03:53:39;7.10;98.10
33988;DHT22;37428;53.580;-1.666;2023-12-20T03:56:41;7.10;97.90
33988;DHT22;37428;53.580;-1.666;2023-12-20T03:59:43;7.10;97.70
33988;DHT22;37428;53.580;-1.666;2023-12-20T04:02:46;7.10;97.60
33988;DHT22;37428;53.580;-1.666;2023-12-20T04:05:50;7.10;97.20
33988;DHT22;37428;53.580;-1.666;2023-12-20T04:08:53;7.10;97.30
33988;DHT22;37428;53.580;-1.666;2023-12-20T04:11:58;7.20;97.30
33988;DHT22;37428;53.580;-1.666;2023-12-20T04:15:01;7.10;97.80
33988;DHT22;37428;53.580;-1.666;2023-12-20T04:18:09;7.10;98.20
33988;DHT22;37428;53.580;-1.666;2023-12-20T04:21:11;7.10;99.80
33988;DHT22;37428;53.580;-1.666;2023-12-20T04:24:15;7.00;99.90
33988;DHT22;37428;53.580;-1.666;2023-12-20T04:27:17;7.00;99.90
33988;DHT22;37428;53.580;-1.666;2023-12-20T04:30:20;7.00;99.90
33988;DHT22;37428;53.580;-1.666;2023-12-20T04:33:22;6.90;99.90
33988;DHT22;37428;53.580;-1.666;2023-12-20T04:36:24;6.90;99.90
33988;DHT22;37428;53.580;-1.666;2023-12-20T04:39:29;6.90;99.90
33988;DHT22;37428;53.580;-1.666;2023-12-20T04:42:31;6.90;99.90
33988;DHT22;37428;53.580;-1.666;2023-12-20T04:45:33;6.90;99.90
33988;DHT22;37428;53.580;-1.666;2023-12-20T04:48:35;6.80;99.90
33988;DHT22;37428;53.580;-1.666;2023-12-20T04:51:37;6.80;99.90
33988;DHT22;37428;53.580;-1.666;2023-12-20T04:54:41;6.80;99.90
33988;DHT22;37428;53.580;-1.666;2023-12-20T04:57:43;6.80;99.90
33988;DHT22;37428;53.580;-1.666;2023-12-20T05:00:46;6.80;99.90
33988;DHT22;37428;53.580;-1.666;2023-12-20T05:03:48;6.90;99.90
33988;DHT22;37428;53.580;-1.666;2023-12-20T05:06:50;6.80;99.90
33988;DHT22;37428;53.580;-1.666;2023-12-20T05:09:54;6.90;99.90
33988;DHT22;37428;53.580;-1.666;2023-12-20T05:12:56;6.80;99.90
33988;DHT22;37428;53.580;-1.666;2023-12-20T05:15:58;6.90;99.90
33988;DHT22;37428;53.580;-1.666;2023-12-20T05:19:00;6.80;99.90
33988;DHT22;37428;53.580;-1.666;2023-12-20T05:22:07;6.90;99.90
33988;DHT22;37428;53.580;-1.666;2023-12-20T05:25:11;6.90;99.90
33988;DHT22;37428;53.580;-1.666;2023-12-20T05:28:13;6.90;99.90
33988;DHT22;37428;53.580;-1.666;2023-12-20T05:31:15;6.90;99.90
33988;DHT22;37428;53.580;-1.666;2023-12-20T05:34:17;6.80;99.90
33988;DHT22;37428;53.580;-1.666;2023-12-20T05:37:22;6.90;99.90
33988;DHT22;37428;53.580;-1.666;2023-12-20T05:40:25;6.90;99.90
33988;DHT22;37428;53.580;-1.666;2023-12-20T05:43:28;6.90;99.90
33988;DHT22;37428;53.580;-1.666;2023-12-20T05:46:31;6.90;99.90
33988;DHT22;37428;53.580;-1.666;2023-12-20T05:49:33;6.90;99.90
33988;DHT22;37428;53.580;-1.666;2023-12-20T05:52:35;6.90;99.90
33988;DHT22;37428;53.580;-1.666;2023-12-20T05:55:39;7.00;99.90
33988;DHT22;37428;53.580;-1.666;2023-12-20T05:58:41;7.00;99.90
33988;DHT22;37428;53.580;-1.666;2023-12-20T06:01:50;7.00;99.90
33988;DHT22;37428;53.580;-1.666;2023-12-20T06:04:52;7.00;99.90
33988;DHT22;37428;53.580;-1.666;2023-12-20T06:07:54;7.00;99.90
33988;DHT22;37428;53.580;-1.666;2023-12-20T06:10:59;7.00;99.90
33988;DHT22;37428;53.580;-1.666;2023-12-20T06:14:02;7.00;99.90
33988;DHT22;37428;53.580;-1.666;2023-12-20T06:17:04;7.00;99.90
33988;DHT22;37428;53.580;-1.666;2023-12-20T06:20:07;7.00;99.90
33988;DHT22;37428;53.580;-1.666;2023-12-20T06:23:12;7.10;99.90
33988;DHT22;37428;53.580;-1.666;2023-12-20T06:26:15;7.10;99.90
33988;DHT22;37428;53.580;-1.666;2023-12-20T06:29:17;7.10;99.70
33988;DHT22;37428;53.580;-1.666;2023-12-20T06:32:20;7.10;99.50
33988;DHT22;37428;53.580;-1.666;2023-12-20T06:35:24;7.10;99.60
33988;DHT22;37428;53.580;-1.666;2023-12-20T06:38:26;7.10;99.60
33988;DHT22;37428;53.580;-1.666;2023-12-20T06:41:30;7.10;99.90
33988;DHT22;37428;53.580;-1.666;2023-12-20T06:44:34;7.10;99.90
33988;DHT22;37428;53.580;-1.666;2023-12-20T06:47:37;7.10;99.90
33988;DHT22;37428;53.580;-1.666;2023-12-20T06:50:39;7.10;99.90
33988;DHT22;37428;53.580;-1.666;2023-12-20T06:53:49;7.00;99.90
33988;DHT22;37428;53.580;-1.666;2023-12-20T06:56:53;7.10;99.90
33988;DHT22;37428;53.580;-1.666;2023-12-20T06:59:55;7.10;99.90
33988;DHT22;37428;53.580;-1.666;2023-12-20T07:02:58;7.10;99.90
33988;DHT22;37428;53.580;-1.666;2023-12-20T07:06:00;7.10;99.90
33988;DHT22;37428;53.580;-1.666;2023-12-20T07:09:04;7.10;99.90
33988;DHT22;37428;53.580;-1.666;2023-12-20T07:12:10;7.20;99.90
33988;DHT22;37428;53.580;-1.666;2023-12-20T07:15:13;7.10;99.60
33988;DHT22;37428;53.580;-1.666;2023-12-20T07:18:15;7.10;99.50
33988;DHT22;37428;53.580;-1.666;2023-12-20T07:21:17;7.10;99.90
33988;DHT22;37428;53.580;-1.666;2023-12-20T07:24:19;7.10;99.20
33988;DHT22;37428;53.580;-1.666;2023-12-20T07:27:23;7.10;99.20
33988;DHT22;37428;53.580;-1.666;2023-12-20T07:30:26;7.10;99.60
33988;DHT22;37428;53.580;-1.666;2023-12-20T07:33:28;7.10;99.90
33988;DHT22;37428;53.580;-1.666;2023-12-20T07:36:31;7.10;99.90
33988;DHT22;37428;53.580;-1.666;2023-12-20T07:39:33;7.10;99.90
33988;DHT22;37428;53.580;-1.666;2023-12-20T07:42:36;7.10;99.90
33988;DHT22;37428;53.580;-1.666;2023-12-20T07:45:39;7.10;99.90
33988;DHT22;37428;53.580;-1.666;2023-12-20T07:48:41;7.10;99.90
33988;DHT22;37428;53.580;-1.666;2023-12-20T07:51:43;7.10;99.90
33988;DHT22;37428;53.580;-1.666;2023-12-20T07:54:45;7.10;99.90
33988;DHT22;37428;53.580;-1.666;2023-12-20T07:57:49;7.10;99.90
33988;DHT22;37428;53.580;-1.666;2023-12-20T08:00:51;7.10;99.90
33988;DHT22;37428;53.580;-1.666;2023-12-20T08:03:53;7.10;99.90
33988;DHT22;37428;53.580;-1.666;2023-12-20T08:06:56;7.10;99.90
33988;DHT22;37428;53.580;-1.666;2023-12-20T08:09:58;7.10;99.70
33988;DHT22;37428;53.580;-1.666;2023-12-20T08:13:17;7.10;99.40
33988;DHT22;37428;53.580;-1.666;2023-12-20T08:16:19;7.20;99.60
33988;DHT22;37428;53.580;-1.666;2023-12-20T08:19:24;7.20;99.80
33988;DHT22;37428;53.580;-1.666;2023-12-20T08:22:26;7.20;99.40
33988;DHT22;37428;53.580;-1.666;2023-12-20T08:25:29;7.20;99.40
33988;DHT22;37428;53.580;-1.666;2023-12-20T08:28:33;7.30;99.20
33988;DHT22;37428;53.580;-1.666;2023-12-20T08:31:35;7.20;99.80
33988;DHT22;37428;53.580;-1.666;2023-12-20T08:34:38;7.20;99.60
33988;DHT22;37428;53.580;-1.666;2023-12-20T08:37:40;7.20;99.50
33988;DHT22;37428;53.580;-1.666;2023-12-20T08:40:42;7.20;99.10
33988;DHT22;37428;53.580;-1.666;2023-12-20T08:43:46;7.20;99.20
33988;DHT22;37428;53.580;-1.666;2023-12-20T08:46:48;7.30;99.30
33988;DHT22;37428;53.580;-1.666;2023-12-20T08:49:52;7.30;99.90
33988;DHT22;37428;53.580;-1.666;2023-12-20T08:52:57;7.30;99.90
33988;DHT22;37428;53.580;-1.666;2023-12-20T08:55:59;7.30;99.90
33988;DHT22;37428;53.580;-1.666;2023-12-20T08:59:03;7.40;99.90
33988;DHT22;37428;53.580;-1.666;2023-12-20T09:02:06;7.40;99.90
33988;DHT22;37428;53.580;-1.666;2023-12-20T09:05:10;7.40;99.90
33988;DHT22;37428;53.580;-1.666;2023-12-20T09:08:13;7.40;99.90
33988;DHT22;37428;53.580;-1.666;2023-12-20T09:11:15;7.50;99.90
33988;DHT22;37428;53.580;-1.666;2023-12-20T09:14:27;7.50;99.70
33988;DHT22;37428;53.580;-1.666;2023-12-20T09:17:29;7.50;99.50
33988;DHT22;37428;53.580;-1.666;2023-12-20T09:20:31;7.60;99.20
33988;DHT22;37428;53.580;-1.666;2023-12-20T09:23:34;7.60;99.00
33988;DHT22;37428;53.580;-1.666;2023-12-20T09:26:37;7.60;99.50
33988;DHT22;37428;53.580;-1.666;2023-12-20T09:29:42;7.60;99.80
33988;DHT22;37428;53.580;-1.666;2023-12-20T09:32:44;7.60;99.90
33988;DHT22;37428;53.580;-1.666;2023-12-20T09:35:47;7.70;99.90
33988;DHT22;37428;53.580;-1.666;2023-12-20T09:38:49;7.70;99.90
33988;DHT22;37428;53.580;-1.666;2023-12-20T09:41:59;7.60;99.90
33988;DHT22;37428;53.580;-1.666;2023-12-20T09:45:20;7.60;99.90
33988;DHT22;37428;53.580;-1.666;2023-12-20T09:48:24;7.60;99.90
33988;DHT22;37428;53.580;-1.666;2023-12-20T09:51:29;7.60;99.90
33988;DHT22;37428;53.580;-1.666;2023-12-20T09:54:32;7.60;99.90
33988;DHT22;37428;53.580;-1.666;2023-12-20T09:57:34;7.50;99.90
33988;DHT22;37428;53.580;-1.666;2023-12-20T10:00:38;7.50;99.90
33988;DHT22;37428;53.580;-1.666;2023-12-20T10:03:41;7.50;99.90
33988;DHT22;37428;53.580;-1.666;2023-12-20T10:06:43;7.50;99.90
33988;DHT22;37428;53.580;-1.666;2023-12-20T10:09:46;7.50;99.90
33988;DHT22;37428;53.580;-1.666;2023-12-20T10:13:02;7.60;99.90
33988;DHT22;37428;53.580;-1.666;2023-12-20T10:16:06;7.60;99.90
33988;DHT22;37428;53.580;-1.666;2023-12-20T10:19:09;7.70;99.90
33988;DHT22;37428;53.580;-1.666;2023-12-20T10:22:11;7.70;99.90
33988;DHT22;37428;53.580;-1.666;2023-12-20T10:25:13;7.80;99.90
33988;DHT22;37428;53.580;-1.666;2023-12-20T10:28:16;7.80;99.90
33988;DHT22;37428;53.580;-1.666;2023-12-20T10:31:28;7.80;99.90
33988;DHT22;37428;53.580;-1.666;2023-12-20T10:34:32;7.80;99.90
33988;DHT22;37428;53.580;-1.666;2023-12-20T10:37:35;7.80;99.90
33988;DHT22;37428;53.580;-1.666;2023-12-20T10:40:38;7.90;99.90
33988;DHT22;37428;53.580;-1.666;2023-12-20T10:43:40;7.90;99.90
33988;DHT22;37428;53.580;-1.666;2023-12-20T10:46:44;8.00;99.90
33988;DHT22;37428;53.580;-1.666;2023-12-20T10:49:52;7.90;99.90
33988;DHT22;37428;53.580;-1.666;2023-12-20T10:52:55;8.00;99.90
33988;DHT22;37428;53.580;-1.666;2023-12-20T10:56:00;8.00;99.90
33988;DHT22;37428;53.580;-1.666;2023-12-20T10:59:05;8.10;99.90
33988;DHT22;37428;53.580;-1.666;2023-12-20T11:02:12;8.10;99.90
33988;DHT22;37428;53.580;-1.666;2023-12-20T11:05:23;8.10;99.90
33988;DHT22;37428;53.580;-1.666;2023-12-20T11:08:47;8.10;99.90
33988;DHT22;37428;53.580;-1.666;2023-12-20T11:12:09;8.10;99.90
33988;DHT22;37428;53.580;-1.666;2023-12-20T11:15:15;8.10;99.90
33988;DHT22;37428;53.580;-1.666;2023-12-20T11:18:18;8.10;99.90
33988;DHT22;37428;53.580;-1.666;2023-12-20T11:21:21;8.10;99.90
33988;DHT22;37428;53.580;-1.666;2023-12-20T11:24:23;8.10;99.90
33988;DHT22;37428;53.580;-1.666;2023-12-20T11:27:27;8.10;99.90
33988;DHT22;37428;53.580;-1.666;2023-12-20T11:30:41;8.10;99.90
33988;DHT22;37428;53.580;-1.666;2023-12-20T11:34:17;8.20;99.90
33988;DHT22;37428;53.580;-1.666;2023-12-20T11:37:20;8.20;99.90
33988;DHT22;37428;53.580;-1.666;2023-12-20T11:40:23;8.20;99.90
33988;DHT22;37428;53.580;-1.666;2023-12-20T11:43:34;8.20;99.90
33988;DHT22;37428;53.580;-1.666;2023-12-20T11:46:37;8.20;99.90
33988;DHT22;37428;53.580;-1.666;2023-12-20T11:49:40;8.20;99.90
33988;DHT22;37428;53.580;-1.666;2023-12-20T11:52:44;8.20;99.90
33988;DHT22;37428;53.580;-1.666;2023-12-20T11:55:48;8.10;99.90
33988;DHT22;37428;53.580;-1.666;2023-12-20T11:58:50;8.10;99.90
33988;DHT22;37428;53.580;-1.666;2023-12-20T12:01:52;8.10;99.90
33988;DHT22;37428;53.580;-1.666;2023-12-20T12:04:59;8.10;99.90
33988;DHT22;37428;53.580;-1.666;2023-12-20T12:08:01;8.10;99.90
33988;DHT22;37428;53.580;-1.666;2023-12-20T12:11:04;8.10;99.90
33988;DHT22;37428;53.580;-1.666;2023-12-20T12:14:07;8.10;99.90
33988;DHT22;37428;53.580;-1.666;2023-12-20T12:17:12;8.10;99.90
33988;DHT22;37428;53.580;-1.666;2023-12-20T12:20:23;8.10;99.90
33988;DHT22;37428;53.580;-1.666;2023-12-20T12:23:26;8.20;99.90
33988;DHT22;37428;53.580;-1.666;2023-12-20T12:26:30;8.20;99.90
33988;DHT22;37428;53.580;-1.666;2023-12-20T12:29:32;8.20;99.90
33988;DHT22;37428;53.580;-1.666;2023-12-20T12:32:35;8.20;99.90
33988;DHT22;37428;53.580;-1.666;2023-12-20T12:35:38;8.20;99.90
33988;DHT22;37428;53.580;-1.666;2023-12-20T12:38:42;8.20;99.90
33988;DHT22;37428;53.580;-1.666;2023-12-20T12:41:44;8.30;99.90
33988;DHT22;37428;53.580;-1.666;2023-12-20T12:44:46;8.30;99.90
33988;DHT22;37428;53.580;-1.666;2023-12-20T12:47:48;8.40;99.90
33988;DHT22;37428;53.580;-1.666;2023-12-20T12:50:52;8.40;99.90
33988;DHT22;37428;53.580;-1.666;2023-12-20T12:53:55;8.40;99.90
33988;DHT22;37428;53.580;-1.666;2023-12-20T12:56:57;8.40;99.90
33988;DHT22;37428;53.580;-1.666;2023-12-20T12:59:59;8.40;99.90
33988;DHT22;37428;53.580;-1.666;2023-12-20T13:03:02;8.40;99.90
33988;DHT22;37428;53.580;-1.666;2023-12-20T13:06:06;8.40;99.90
33988;DHT22;37428;53.580;-1.666;2023-12-20T13:09:09;8.40;99.90
33988;DHT22;37428;53.580;-1.666;2023-12-20T13:12:11;8.50;99.90
33988;DHT22;37428;53.580;-1.666;2023-12-20T13:15:14;8.40;99.90
33988;DHT22;37428;53.580;-1.666;2023-12-20T13:18:16;8.40;99.90
33988;DHT22;37428;53.580;-1.666;2023-12-20T13:21:20;8.40;99.90
33988;DHT22;37428;53.580;-1.666;2023-12-20T13:24:22;8.40;99.90
33988;DHT22;37428;53.580;-1.666;2023-12-20T13:27:25;8.40;99.90
33988;DHT22;37428;53.580;-1.666;2023-12-20T13:30:27;8.40;99.90
33988;DHT22;37428;53.580;-1.666;2023-12-20T13:33:29;8.40;99.90
33988;DHT22;37428;53.580;-1.666;2023-12-20T13:36:33;8.50;99.90
33988;DHT22;37428;53.580;-1.666;2023-12-20T13:39:35;8.50;99.90
33988;DHT22;37428;53.580;-1.666;2023-12-20T13:42:38;8.50;99.90
33988;DHT22;37428;53.580;-1.666;2023-12-20T13:45:40;8.50;99.90
33988;DHT22;37428;53.580;-1.666;2023-12-20T13:48:42;8.50;99.90
33988;DHT22;37428;53.580;-1.666;2023-12-20T13:51:47;8.50;99.90
33988;DHT22;37428;53.580;-1.666;2023-12-20T13:54:49;8.50;99.90
33988;DHT22;37428;53.580;-1.666;2023-12-20T13:57:51;8.50;99.90
33988;DHT22;37428;53.580;-1.666;2023-12-20T14:00:53;8.50;99.90
33988;DHT22;37428;53.580;-1.666;2023-12-20T14:03:56;8.60;99.90
33988;DHT22;37428;53.580;-1.666;2023-12-20T14:06:59;8.60;99.90
33988;DHT22;37428;53.580;-1.666;2023-12-20T14:10:02;8.60;99.90
33988;DHT22;37428;53.580;-1.666;2023-12-20T14:13:04;8.60;99.90
33988;DHT22;37428;53.580;-1.666;2023-12-20T14:16:07;8.60;99.90
33988;DHT22;37428;53.580;-1.666;2023-12-20T14:19:11;8.50;99.90
33988;DHT22;37428;53.580;-1.666;2023-12-20T14:22:15;8.60;99.90
33988;DHT22;37428;53.580;-1.666;2023-12-20T14:25:17;8.60;99.90
33988;DHT22;37428;53.580;-1.666;2023-12-20T14:28:19;8.60;99.90
33988;DHT22;37428;53.580;-1.666;2023-12-20T14:31:22;8.70;99.90
33988;DHT22;37428;53.580;-1.666;2023-12-20T14:34:25;8.70;99.90
33988;DHT22;37428;53.580;-1.666;2023-12-20T14:37:29;8.70;99.90
33988;DHT22;37428;53.580;-1.666;2023-12-20T14:40:31;8.70;99.90
33988;DHT22;37428;53.580;-1.666;2023-12-20T14:43:33;8.70;99.90
33988;DHT22;37428;53.580;-1.666;2023-12-20T14:46:35;8.70;99.90
33988;DHT22;37428;53.580;-1.666;2023-12-20T14:49:38;8.70;99.90
33988;DHT22;37428;53.580;-1.666;2023-12-20T14:52:42;8.70;99.90
33988;DHT22;37428;53.580;-1.666;2023-12-20T14:55:46;8.70;99.90
33988;DHT22;37428;53.580;-1.666;2023-12-20T14:58:49;8.70;99.90
33988;DHT22;37428;53.580;-1.666;2023-12-20T15:01:51;8.70;99.90
33988;DHT22;37428;53.580;-1.666;2023-12-20T15:04:53;8.70;99.90
33988;DHT22;37428;53.580;-1.666;2023-12-20T15:07:57;8.70;99.90
33988;DHT22;37428;53.580;-1.666;2023-12-20T15:10:59;8.80;99.90
33988;DHT22;37428;53.580;-1.666;2023-12-20T15:14:16;8.80;99.90
33988;DHT22;37428;53.580;-1.666;2023-12-20T15:17:43;8.70;99.90
33988;DHT22;37428;53.580;-1.666;2023-12-20T15:20:54;8.70;99.90
33988;DHT22;37428;53.580;-1.666;2023-12-20T15:24:21;8.70;99.90
33988;DHT22;37428;53.580;-1.666;2023-12-20T15:27:29;8.70;99.90
33988;DHT22;37428;53.580;-1.666;2023-12-20T15:30:31;8.70;99.90
33988;DHT22;37428;53.580;-1.666;2023-12-20T15:33:33;8.70;99.90
33988;DHT22;37428;53.580;-1.666;2023-12-20T15:36:36;8.70;99.90
33988;DHT22;37428;53.580;-1.666;2023-12-20T15:39:41;8.70;99.90
33988;DHT22;37428;53.580;-1.666;2023-12-20T15:42:43;8.70;99.90
33988;DHT22;37428;53.580;-1.666;2023-12-20T15:45:45;8.70;99.90
33988;DHT22;37428;53.580;-1.666;2023-12-20T15:48:47;8.70;99.90
33988;DHT22;37428;53.580;-1.666;2023-12-20T15:52:04;8.70;99.90
33988;DHT22;37428;53.580;-1.666;2023-12-20T15:55:11;8.70;99.90
33988;DHT22;37428;53.580;-1.666;2023-12-20T15:58:16;8.70;99.90
33988;DHT22;37428;53.580;-1.666;2023-12-20T16:01:32;8.70;99.90
33988;DHT22;37428;53.580;-1.666;2023-12-20T16:04:38;8.70;99.90
33988;DHT22;37428;53.580;-1.666;2023-12-20T16:07:40;8.70;99.90
33988;DHT22;37428;53.580;-1.666;2023-12-20T16:11:06;8.70;99.90
33988;DHT22;37428;53.580;-1.666;2023-12-20T16:14:13;8.70;99.90
33988;DHT22;37428;53.580;-1.666;2023-12-20T16:17:35;8.70;99.90
33988;DHT22;37428;53.580;-1.666;2023-12-20T16:20:51;8.70;99.90
33988;DHT22;37428;53.580;-1.666;2023-12-20T16:23:56;8.70;99.90
33988;DHT22;37428;53.580;-1.666;2023-12-20T16:26:59;8.70;99.90
33988;DHT22;37428;53.580;-1.666;2023-12-20T16:30:10;8.70;99.90
33988;DHT22;37428;53.580;-1.666;2023-12-20T16:33:55;8.70;99.90
33988;DHT22;37428;53.580;-1.666;2023-12-20T16:37:00;8.70;99.90
33988;DHT22;37428;53.580;-1.666;2023-12-20T16:40:16;8.70;99.90
33988;DHT22;37428;53.580;-1.666;2023-12-20T16:43:32;8.70;99.90
33988;DHT22;37428;53.580;-1.666;2023-12-20T16:46:34;8.70;99.90
33988;DHT22;37428;53.580;-1.666;2023-12-20T16:49:36;8.70;99.90
33988;DHT22;37428;53.580;-1.666;2023-12-20T16:52:40;8.70;99.90
33988;DHT22;37428;53.580;-1.666;2023-12-20T16:55:43;8.70;99.90
33988;DHT22;37428;53.580;-1.666;2023-12-20T16:58:59;8.80;99.90
33988;DHT22;37428;53.580;-1.666;2023-12-20T17:02:05;8.70;99.90
33988;DHT22;37428;53.580;-1.666;2023-12-20T17:05:10;8.80;99.90
33988;DHT22;37428;53.580;-1.666;2023-12-20T17:08:32;8.80;99.90
33988;DHT22;37428;53.580;-1.666;2023-12-20T17:11:44;8.90;99.90
33988;DHT22;37428;53.580;-1.666;2023-12-20T17:14:55;8.80;99.90
33988;DHT22;37428;53.580;-1.666;2023-12-20T17:18:06;8.80;99.90
33988;DHT22;37428;53.580;-1.666;2023-12-20T17:21:18;8.80;99.90
33988;DHT22;37428;53.580;-1.666;2023-12-20T17:24:23;8.80;99.90
33988;DHT22;37428;53.580;-1.666;2023-12-20T17:27:32;8.90;99.90
33988;DHT22;37428;53.580;-1.666;2023-12-20T17:30:37;8.80;99.90
33988;DHT22;37428;53.580;-1.666;2023-12-20T17:33:39;8.90;99.90
33988;DHT22;37428;53.580;-1.666;2023-12-20T17:36:42;8.90;99.90
33988;DHT22;37428;53.580;-1.666;2023-12-20T17:40:01;8.90;99.90
33988;DHT22;37428;53.580;-1.666;2023-12-20T17:43:17;8.90;99.90
33988;DHT22;37428;53.580;-1.666;2023-12-20T17:46:20;8.90;99.90
33988;DHT22;37428;53.580;-1.666;2023-12-20T17:49:22;8.90;99.90
33988;DHT22;37428;53.580;-1.666;2023-12-20T17:52:26;8.90;99.90
33988;DHT22;37428;53.580;-1.666;2023-12-20T17:55:42;8.90;99.90
33988;DHT22;37428;53.580;-1.666;2023-12-20T17:58:44;8.90;99.90
33988;DHT22;37428;53.580;-1.666;2023-12-20T18:05:43;9.00;99.90
33988;DHT22;37428;53.580;-1.666;2023-12-20T18:08:45;9.00;99.90
33988;DHT22;37428;53.580;-1.666;2023-12-20T18:12:05;9.00;99.90
33988;DHT22;37428;53.580;-1.666;2023-12-20T18:15:27;9.00;99.90
33988;DHT22;37428;53.580;-1.666;2023-12-20T18:18:29;9.10;99.90
33988;DHT22;37428;53.580;-1.666;2023-12-20T18:21:32;9.10;99.90
33988;DHT22;37428;53.580;-1.666;2023-12-20T18:24:35;9.10;99.90
33988;DHT22;37428;53.580;-1.666;2023-12-20T18:27:37;9.10;99.90
33988;DHT22;37428;53.580;-1.666;2023-12-20T18:32:14;9.10;99.90
33988;DHT22;37428;53.580;-1.666;2023-12-20T18:34:27;9.00;99.90
33988;DHT22;37428;53.580;-1.666;2023-12-20T18:37:31;9.00;99.90
33988;DHT22;37428;53.580;-1.666;2023-12-20T18:40:35;9.00;99.90
33988;DHT22;37428;53.580;-1.666;2023-12-20T18:43:38;9.00;99.90
33988;DHT22;37428;53.580;-1.666;2023-12-20T18:46:40;9.10;99.90
33988;DHT22;37428;53.580;-1.666;2023-12-20T18:49:42;9.10;99.90
33988;DHT22;37428;53.580;-1.666;2023-12-20T18:52:46;9.00;99.90
33988;DHT22;37428;53.580;-1.666;2023-12-20T18:55:48;9.00;99.90
33988;DHT22;37428;53.580;-1.666;2023-12-20T18:58:50;9.00;99.90
33988;DHT22;37428;53.580;-1.666;2023-12-20T19:01:52;9.10;99.90
33988;DHT22;37428;53.580;-1.666;2023-12-20T19:04:56;9.10;99.90
33988;DHT22;37428;53.580;-1.666;2023-12-20T19:08:00;9.20;99.90
33988;DHT22;37428;53.580;-1.666;2023-12-20T19:11:04;9.10;99.90
33988;DHT22;37428;53.580;-1.666;2023-12-20T19:14:06;9.10;99.90
33988;DHT22;37428;53.580;-1.666;2023-12-20T19:17:12;9.10;99.90
33988;DHT22;37428;53.580;-1.666;2023-12-20T19:20:14;9.00;99.90
33988;DHT22;37428;53.580;-1.666;2023-12-20T19:23:18;9.10;99.90
33988;DHT22;37428;53.580;-1.666;2023-12-20T19:26:20;9.00;99.90
33988;DHT22;37428;53.580;-1.666;2023-12-20T19:29:23;9.00;99.90